createdAt,value
2023-04-03T00:00:47.332Z,98546.81
2023-04-03T00:05:50.047Z,98906.47
2023-04-03T00:10:52.580Z,98666.34
2023-04-03T00:15:54.955Z,98922.97
2023-04-03T00:20:57.406Z,98784.66
2023-04-03T00:25:59.763Z,99076.03
2023-04-03T00:31:02.186Z,99046.56
2023-04-03T00:36:11.816Z,99055.22
2023-04-03T00:41:14.135Z,99055.34
2023-04-03T00:46:35.106Z,99053.44
2023-04-03T00:51:40.745Z,98768.13
2023-04-03T00:56:43.128Z,98932.38
2023-04-03T01:01:46.064Z,98768.03
2023-04-03T01:06:48.569Z,98745.38
2023-04-03T01:11:51.066Z,98996.81
2023-04-03T01:16:56.740Z,99036.81
2023-04-03T01:22:13.034Z,98947.19
2023-04-03T01:27:15.418Z,99061.19
2023-04-03T01:32:17.947Z,99058.59
2023-04-03T01:37:20.411Z,99038.56
2023-04-03T01:42:23.664Z,99054.25
2023-04-03T01:47:26.225Z,98979.28
2023-04-03T01:52:28.776Z,99064.59
2023-04-03T01:57:31.639Z,99004.50
2023-04-03T02:02:34.490Z,99050.66
2023-04-03T02:07:37.024Z,98956.59
2023-04-03T02:12:39.529Z,99025.31
2023-04-03T02:17:41.892Z,99030.56
2023-04-03T02:22:44.325Z,98959.19
2023-04-03T02:27:46.611Z,99028.81
2023-04-03T02:32:49.021Z,99071.53
2023-04-03T02:37:51.501Z,99005.41
2023-04-03T02:42:53.887Z,99068.94
2023-04-03T02:47:57.379Z,99065.50
2023-04-03T02:52:59.783Z,99004.50
2023-04-03T02:58:02.262Z,98999.22
2023-04-03T03:03:05.154Z,99034.09
2023-04-03T03:08:07.713Z,99066.19
2023-04-03T03:13:10.056Z,99041.91
2023-04-03T03:18:12.345Z,99065.41
2023-04-03T03:23:14.757Z,99046.22
2023-04-03T03:28:17.118Z,99045.28
2023-04-03T03:33:21.775Z,99077.47
2023-04-03T03:38:28.511Z,99080.06
2023-04-03T03:43:33.420Z,99138.09
2023-04-03T03:48:36.041Z,98537.22
2023-04-03T03:53:38.565Z,98621.25
2023-04-03T03:58:44.963Z,98613.31
2023-04-03T04:03:48.804Z,98982.50
2023-04-03T04:08:55.790Z,99006.00
2023-04-03T04:13:58.125Z,99039.94
2023-04-03T04:19:03.138Z,99084.47
2023-04-03T04:24:07.565Z,98906.81
2023-04-03T04:29:11.477Z,99095.75
2023-04-03T04:34:14.456Z,99083.56
2023-04-03T04:39:16.864Z,99062.56
2023-04-03T04:44:19.359Z,99105.38
2023-04-03T04:49:21.844Z,98982.59
2023-04-03T04:54:24.862Z,99109.75
2023-04-03T04:59:28.381Z,98915.56
2023-04-03T05:04:34.580Z,98930.47
2023-04-03T05:09:44.565Z,98960.16
2023-04-03T05:14:49.129Z,99026.41
2023-04-03T05:19:52.294Z,99110.91
2023-04-03T05:24:56.939Z,98992.56
2023-04-03T05:30:01.092Z,98997.84
2023-04-03T05:35:07.134Z,98875.09
2023-04-03T05:40:10.519Z,99110.28
2023-04-03T05:45:16.796Z,98997.03
2023-04-03T05:50:19.478Z,98650.91
2023-04-03T05:55:25.161Z,98845.91
2023-04-03T06:00:29.597Z,99056.47
2023-04-03T06:05:37.785Z,98990.41
2023-04-03T06:10:40.568Z,99103.56
2023-04-03T06:15:43.225Z,99133.19
2023-04-03T06:20:45.872Z,99140.16
2023-04-03T06:25:48.430Z,99144.53
2023-04-03T06:30:50.846Z,99091.44
2023-04-03T06:36:00.387Z,99149.78
2023-04-03T06:41:02.669Z,99155.06
2023-04-03T06:46:05.161Z,99159.41
2023-04-03T06:51:08.153Z,99124.59
2023-04-03T06:56:11.087Z,99154.22
2023-04-03T07:01:15.207Z,99149.84
2023-04-03T07:06:19.235Z,99171.66
2023-04-03T07:11:21.838Z,99084.69
2023-04-03T07:16:24.246Z,99153.44
2023-04-03T07:21:27.048Z,99152.59
2023-04-03T07:26:29.651Z,99157.78
2023-04-03T07:31:32.315Z,98955.97
2023-04-03T07:36:34.862Z,98891.75
2023-04-03T07:41:37.223Z,99008.22
2023-04-03T07:46:40.114Z,99170.03
2023-04-03T07:51:43.221Z,99068.25
2023-04-03T07:56:46.490Z,99124.84
2023-04-03T08:01:48.865Z,99159.63
2023-04-03T08:06:51.453Z,99174.41
2023-04-03T08:11:54.838Z,99154.41
2023-04-03T08:16:58.017Z,99109.19
2023-04-03T08:22:01.896Z,98863.28
2023-04-03T08:27:05.901Z,99183.91
2023-04-03T08:32:08.362Z,99083.06
2023-04-03T08:37:10.894Z,98708.88
2023-04-03T08:42:32.450Z,99162.72
2023-04-03T08:47:48.939Z,99064.56
2023-04-03T08:52:57.819Z,99038.53
2023-04-03T08:58:08.126Z,99176.59
2023-04-03T09:03:15.496Z,99180.09
2023-04-03T09:08:31.410Z,99183.59
2023-04-03T09:13:58.257Z,99181.78
2023-04-03T09:19:17.269Z,98947.34
2023-04-03T09:24:20.522Z,99127.97
2023-04-03T09:29:24.375Z,99133.16
2023-04-03T09:34:38.992Z,99147.00
2023-04-03T09:39:54.840Z,99166.16
2023-04-03T09:45:02.440Z,99136.56
2023-04-03T09:50:15.360Z,99200.84
2023-04-03T09:55:31.026Z,99122.66
2023-04-03T10:00:37.269Z,99200.78
2023-04-03T10:05:42.377Z,99132.22
2023-04-03T10:10:50.273Z,99188.63
2023-04-03T10:16:03.599Z,99173.81
2023-04-03T10:21:27.485Z,99203.28
2023-04-03T10:26:38.884Z,99187.69
2023-04-03T10:31:56.798Z,99212.81
2023-04-03T10:37:17.793Z,99205.00
2023-04-03T10:42:29.541Z,99128.56
2023-04-03T10:47:52.989Z,99190.22
2023-04-03T10:53:07.703Z,99216.22
2023-04-03T10:58:20.870Z,99087.69
2023-04-03T11:03:33.356Z,99191.88
2023-04-03T11:09:08.138Z,99215.25
2023-04-03T11:14:23.185Z,99158.81
2023-04-03T11:19:36.623Z,99132.72
2023-04-03T11:24:41.366Z,99030.28
2023-04-03T11:29:46.747Z,99176.06
2023-04-03T11:34:55.468Z,99187.34
2023-04-03T11:40:00.313Z,99204.66
2023-04-03T11:45:31.278Z,99197.59
2023-04-03T11:50:36.911Z,99205.44
2023-04-03T11:55:45.404Z,99202.84
2023-04-03T12:00:52.146Z,99190.59
2023-04-03T12:06:15.734Z,99200.09
2023-04-03T12:11:32.017Z,99200.97
2023-04-03T12:16:40.763Z,99210.59
2023-04-03T12:21:46.944Z,99204.53
2023-04-03T12:27:19.652Z,99204.47
2023-04-03T12:32:37.903Z,99202.78
2023-04-03T12:37:59.579Z,99204.56
2023-04-03T12:43:20.186Z,99201.97
2023-04-03T12:48:27.393Z,99182.91
2023-04-03T12:53:37.433Z,99090.06
2023-04-03T12:58:39.839Z,99034.56
2023-04-03T13:03:45.455Z,99137.88
2023-04-03T13:09:15.305Z,99204.72
2023-04-03T13:14:21.334Z,99208.22
2023-04-03T13:19:29.639Z,99193.53
2023-04-03T13:24:35.169Z,99150.16
2023-04-03T13:29:39.225Z,99057.25
2023-04-03T13:34:47.467Z,98867.28
2023-04-03T13:40:03.960Z,99097.22
2023-04-03T13:45:29.772Z,99211.84
2023-04-03T13:50:32.258Z,99191.91
2023-04-03T13:55:37.577Z,99218.94
2023-04-03T14:01:01.971Z,99214.50
2023-04-03T14:06:06.829Z,99055.81
2023-04-03T14:11:35.766Z,99168.59
2023-04-03T14:16:42.254Z,99230.44
2023-04-03T14:21:44.646Z,99220.03
2023-04-03T14:26:47.914Z,99144.47
2023-04-03T14:31:57.828Z,99095.84
2023-04-03T14:37:10.480Z,99221.94
2023-04-03T14:42:20.713Z,99107.22
2023-04-03T14:47:31.099Z,99100.31
2023-04-03T14:52:37.156Z,99242.91
2023-04-03T14:57:40.919Z,99054.34
2023-04-03T15:02:43.727Z,99188.16
2023-04-03T15:07:51.522Z,99152.53
2023-04-03T15:12:54.528Z,99236.84
2023-04-03T15:23:34.025Z,99156.94
2023-04-03T15:28:40.131Z,99249.13
2023-04-03T15:33:42.591Z,99202.19
2023-04-03T15:38:45.086Z,99254.38
2023-04-03T15:43:47.631Z,99071.81
2023-04-03T15:48:50.957Z,99231.78
2023-04-03T15:53:53.344Z,99206.59
2023-04-03T15:58:55.873Z,99216.16
2023-04-03T16:03:58.345Z,99182.22
2023-04-03T16:09:02.038Z,99185.72
2023-04-03T16:14:04.420Z,99181.38
2023-04-03T16:19:07.227Z,99139.63
2023-04-03T16:24:10.152Z,99137.88
2023-04-03T16:29:12.514Z,99270.13
2023-04-03T16:34:15.109Z,99257.94
2023-04-03T16:39:17.879Z,99210.06
2023-04-03T16:44:20.282Z,99217.00
2023-04-03T16:49:22.706Z,99275.34
2023-04-03T16:54:25.339Z,99297.09
2023-04-03T16:59:27.938Z,99191.75
2023-04-03T17:04:30.428Z,99290.09
2023-04-03T17:09:34.126Z,99239.59
2023-04-03T17:14:36.780Z,99268.31
2023-04-03T17:19:39.452Z,99313.56
2023-04-03T17:24:44.247Z,99289.16
2023-04-03T17:29:46.546Z,99312.66
2023-04-03T17:34:49.307Z,99330.09
2023-04-03T17:39:51.678Z,99331.81
2023-04-03T17:44:54.321Z,99266.44
2023-04-03T17:49:56.704Z,99330.06
2023-04-03T17:54:59.195Z,99125.34
2023-04-03T18:00:03.909Z,99193.25
2023-04-03T18:05:17.116Z,99274.25
2023-04-03T18:10:20.702Z,99329.16
2023-04-03T18:15:27.827Z,99258.53
2023-04-03T18:20:33.960Z,99330.84
2023-04-03T18:25:38.309Z,99349.09
2023-04-03T18:30:42.949Z,99328.25
2023-04-03T18:35:45.692Z,99208.00
2023-04-03T18:40:50.497Z,99271.56
2023-04-03T18:45:56.479Z,99251.53
2023-04-03T18:50:58.938Z,99313.38
2023-04-03T18:56:04.470Z,99247.13
2023-04-03T19:01:20.338Z,98613.69
2023-04-03T19:06:24.122Z,98955.25
2023-04-03T19:11:29.647Z,99247.06
2023-04-03T19:16:34.054Z,99272.31
2023-04-03T19:21:41.470Z,99125.13
2023-04-03T19:26:44.474Z,99292.34
2023-04-03T19:31:46.894Z,99309.69
2023-04-03T19:36:52.780Z,99268.78
2023-04-03T19:41:56.835Z,99287.91
2023-04-03T19:47:00.006Z,99311.47
2023-04-03T19:52:02.540Z,99302.78
2023-04-03T19:57:05.035Z,99280.09
2023-04-03T20:02:11.969Z,99282.66
2023-04-03T20:07:21.758Z,99145.75
2023-04-03T20:12:27.335Z,98977.00
2023-04-03T20:17:33.646Z,98645.69
2023-04-03T20:22:37.726Z,99237.28
2023-04-03T20:27:40.797Z,99197.25
2023-04-03T20:32:48.846Z,99126.69
2023-04-03T20:37:51.395Z,99129.13
2023-04-03T20:42:55.185Z,99294.81
2023-04-03T20:47:57.591Z,99300.84
2023-04-03T20:53:00.955Z,99244.22
2023-04-03T20:58:03.956Z,99291.31
2023-04-03T21:03:06.842Z,99218.09
2023-04-03T21:08:46.660Z,99283.47
2023-04-03T21:14:31.779Z,99283.47
2023-04-03T21:19:34.100Z,99226.78
2023-04-03T21:24:36.622Z,99272.97
2023-04-03T21:29:39.265Z,99179.72
2023-04-03T21:34:41.578Z,99180.59
2023-04-03T21:39:44.200Z,99163.16
2023-04-03T21:44:50.126Z,99149.13
2023-04-03T21:49:52.795Z,98919.94
2023-04-03T21:54:55.283Z,98920.03
2023-04-03T21:59:57.790Z,99094.19
2023-04-03T22:05:00.462Z,99204.78
2023-04-03T22:10:03.239Z,99275.38
2023-04-03T22:15:06.645Z,99199.53
2023-04-03T22:20:09.930Z,99228.28
2023-04-03T22:25:12.676Z,99180.28
2023-04-03T22:30:15.243Z,99266.63
2023-04-03T22:35:17.627Z,99143.69
2023-04-03T22:40:19.992Z,99101.03
2023-04-03T22:45:22.623Z,99261.34
2023-04-03T22:50:25.228Z,99259.59
2023-04-03T22:55:27.708Z,99116.56
2023-04-03T23:00:30.189Z,99231.66
2023-04-03T23:05:32.766Z,99220.22
2023-04-03T23:10:35.203Z,99227.34
2023-04-03T23:15:37.633Z,99154.13
2023-04-03T23:20:40.070Z,99183.75
2023-04-03T23:25:42.660Z,99224.75
2023-04-03T23:30:46.443Z,99224.69
2023-04-03T23:35:49.413Z,99168.94
2023-04-03T23:40:51.970Z,99076.50
2023-04-03T23:45:54.969Z,99206.25
2023-04-03T23:50:57.316Z,99203.56
2023-04-03T23:55:59.848Z,99226.25
